Time;durP1;ratioP1;P1;durP2;ratioP2;P2;SDS_P1;SDS_P2;PMS_P1;PMS_P2;Temp;Humidity;BMP_temperature;BMP_pressure;BME280_temperature;BME280_humidity;BME280_pressure;Samples;Min_cycle;Max_cycle;Signal;HPM_P1;HPM_P2
2021/05/17 00:01:20;;;;;;;4.28;1.40;;;9.50;99.90;;;;;;6300389;28;20032;-81
2021/05/17 00:04:34;;;;;;;2.22;1.52;;;9.30;99.90;;;;;;6317462;28;20032;-81
2021/05/17 00:07:36;;;;;;;2.38;1.45;;;9.30;99.90;;;;;;6302782;28;20078;-80
2021/05/17 00:10:37;;;;;;;3.58;1.80;;;9.30;99.90;;;;;;6300752;28;20036;-81
2021/05/17 00:13:38;;;;;;;5.32;1.67;;;9.40;99.90;;;;;;6331873;28;20477;-81
2021/05/17 00:16:39;;;;;;;2.35;1.70;;;9.20;99.90;;;;;;6318900;28;20028;-81
2021/05/17 00:19:40;;;;;;;4.65;1.80;;;9.30;99.90;;;;;;6314646;28;20071;-81
2021/05/17 00:22:41;;;;;;;3.95;1.98;;;9.60;99.90;;;;;;6297802;28;20040;-81
2021/05/17 00:25:42;;;;;;;5.93;2.08;;;9.60;99.90;;;;;;6306790;28;20070;-81
2021/05/17 00:28:42;;;;;;;5.95;2.10;;;9.40;99.90;;;;;;6308088;28;20039;-81
2021/05/17 00:31:44;;;;;;;4.70;2.30;;;9.60;99.90;;;;;;6325555;28;20023;-80
2021/05/17 00:34:45;;;;;;;4.75;2.55;;;9.50;99.90;;;;;;6283162;28;20113;-81
2021/05/17 00:37:45;;;;;;;6.25;2.15;;;9.70;99.90;;;;;;6273430;28;20093;-81
2021/05/17 00:40:47;;;;;;;7.60;2.20;;;9.30;99.90;;;;;;6320153;28;20102;-81
2021/05/17 00:43:47;;;;;;;5.93;2.15;;;9.60;99.90;;;;;;6320732;28;20051;-81
2021/05/17 00:46:48;;;;;;;8.75;2.60;;;9.50;99.90;;;;;;6299822;28;20044;-80
2021/05/17 00:49:48;;;;;;;5.25;1.83;;;9.60;99.90;;;;;;6282923;28;20492;-81
2021/05/17 00:52:49;;;;;;;11.30;2.20;;;9.60;99.90;;;;;;6283214;28;20485;-81
2021/05/17 00:55:50;;;;;;;4.60;2.50;;;;;;;;;;6282922;28;20081;-80
2021/05/17 00:58:51;;;;;;;8.10;2.30;;;9.50;99.90;;;;;;6316702;28;20537;-81
2021/05/17 01:01:51;;;;;;;5.47;2.38;;;9.50;99.90;;;;;;6283159;28;20055;-81
2021/05/17 01:04:52;;;;;;;6.18;1.92;;;9.90;99.90;;;;;;6316243;28;20385;-81
2021/05/17 01:07:53;;;;;;;5.63;2.40;;;9.80;99.90;;;;;;6318018;28;20078;-81
2021/05/17 01:10:56;;;;;;;12.15;2.50;;;9.50;99.90;;;;;;6316484;28;20028;-81
2021/05/17 01:13:59;;;;;;;9.77;2.50;;;9.60;99.90;;;;;;6300071;28;20061;-81
2021/05/17 01:17:00;;;;;;;10.20;2.70;;;9.60;99.90;;;;;;6299559;28;20466;-81
2021/05/17 01:20:09;;;;;;;9.38;2.85;;;9.60;99.90;;;;;;6299796;28;20481;-81
2021/05/17 01:23:32;;;;;;;10.00;2.65;;;9.80;99.90;;;;;;6282756;28;20024;-81
2021/05/17 01:26:35;;;;;;;8.65;2.83;;;9.60;99.90;;;;;;6303144;28;20038;-81
2021/05/17 01:29:35;;;;;;;8.98;2.60;;;9.80;99.90;;;;;;6317316;28;20040;-80
2021/05/17 01:32:36;;;;;;;9.27;2.70;;;9.80;99.90;;;;;;6287687;28;20039;-81
2021/05/17 01:35:37;;;;;;;9.65;2.50;;;;;;;;;;6296417;28;20031;-80
2021/05/17 01:38:43;;;;;;;7.97;2.75;;;9.70;99.90;;;;;;6321491;28;20098;-81
2021/05/17 01:41:44;;;;;;;6.40;2.17;;;11.90;99.90;;;;;;6304367;28;20032;-81
2021/05/17 01:44:45;;;;;;;6.13;2.47;;;;;;;;;;6303817;28;20908;-80
2021/05/17 01:47:46;;;;;;;8.68;2.78;;;9.80;99.90;;;;;;6320546;28;20066;-81
2021/05/17 01:50:46;;;;;;;7.35;2.67;;;9.80;99.90;;;;;;6321051;28;20078;-80
2021/05/17 01:53:48;;;;;;;7.78;2.60;;;;;;;;;;6288969;28;20020;-80
2021/05/17 01:56:48;;;;;;;9.80;2.88;;;9.90;99.90;;;;;;6320689;28;20775;-80
2021/05/17 01:59:49;;;;;;;11.68;2.80;;;9.80;99.90;;;;;;6287074;28;20028;-80
2021/05/17 02:02:50;;;;;;;11.70;3.00;;;9.90;99.90;;;;;;6303347;28;20032;-80
2021/05/17 02:05:50;;;;;;;9.77;2.58;;;9.80;99.90;;;;;;6303477;28;20036;-81
2021/05/17 02:08:51;;;;;;;9.35;2.85;;;9.90;99.90;;;;;;6303396;28;20063;-80
2021/05/17 02:11:53;;;;;;;7.78;2.60;;;9.80;99.90;;;;;;6303585;28;20043;-80
2021/05/17 02:14:54;;;;;;;9.95;3.33;;;9.90;99.90;;;;;;6318579;28;20027;-80
2021/05/17 02:18:06;;;;;;;7.88;2.38;;;9.70;99.90;;;;;;6303060;28;20107;-80
2021/05/17 02:21:07;;;;;;;6.47;2.45;;;9.60;99.90;;;;;;6320071;28;20054;-80
2021/05/17 02:24:08;;;;;;;10.02;2.40;;;9.60;99.90;;;;;;6302877;28;20032;-80
2021/05/17 02:27:09;;;;;;;8.23;2.73;;;9.70;99.90;;;;;;6314273;28;20067;-80
2021/05/17 02:30:11;;;;;;;7.57;2.22;;;;;;;;;;6320148;28;20040;-80
2021/05/17 02:33:13;;;;;;;9.50;2.55;;;;;;;;;;6319494;28;20474;-81
2021/05/17 02:36:14;;;;;;;3.50;1.73;;;9.60;99.90;;;;;;6319371;28;20114;-81
2021/05/17 02:39:16;;;;;;;4.57;2.03;;;9.50;99.90;;;;;;6319557;28;20478;-80
2021/05/17 02:42:17;;;;;;;7.55;1.88;;;9.60;99.90;;;;;;6303217;28;20024;-81
2021/05/17 02:45:20;;;;;;;6.95;2.42;;;9.40;99.90;;;;;;6302444;28;20113;-81
2021/05/17 02:48:27;;;;;;;8.75;3.00;;;9.50;99.90;;;;;;6301746;28;20105;-81
2021/05/17 02:51:28;;;;;;;7.13;2.67;;;9.40;99.90;;;;;;6319368;28;20036;-80
2021/05/17 02:54:29;;;;;;;9.45;2.80;;;9.80;99.90;;;;;;6310437;28;20036;-80
2021/05/17 02:57:43;;;;;;;6.50;2.47;;;9.40;99.90;;;;;;6344264;28;20067;-80
2021/05/17 03:00:45;;;;;;;8.25;2.92;;;9.70;99.90;;;;;;6327651;28;20369;-80
2021/05/17 03:03:52;;;;;;;9.83;2.83;;;9.90;99.90;;;;;;6310570;28;20023;-80
2021/05/17 03:06:59;;;;;;;12.43;3.17;;;10.00;99.90;;;;;;6327430;28;20020;-79
2021/05/17 03:09:59;;;;;;;8.48;2.90;;;9.60;99.90;;;;;;6311316;28;20035;-80
2021/05/17 03:13:17;;;;;;;9.10;3.50;;;9.70;99.90;;;;;;6301883;28;20370;-80
2021/05/17 03:16:20;;;;;;;9.32;3.00;;;9.80;99.90;;;;;;6302449;28;20026;-80
2021/05/17 03:19:20;;;;;;;7.57;2.50;;;9.80;99.90;;;;;;6310053;28;20023;-80
2021/05/17 03:22:23;;;;;;;7.60;2.55;;;9.80;99.90;;;;;;6326818;28;20106;-80
2021/05/17 03:25:31;;;;;;;10.75;3.42;;;9.90;99.90;;;;;;6310300;28;20054;-80
2021/05/17 03:28:31;;;;;;;6.65;2.30;;;10.00;99.90;;;;;;6343418;28;20066;-80
2021/05/17 03:31:32;;;;;;;9.38;2.53;;;9.90;99.90;;;;;;6343403;28;20054;-80
2021/05/17 03:34:33;;;;;;;6.90;2.42;;;;;;;;;;6306585;28;20077;-80
2021/05/17 03:37:33;;;;;;;6.70;2.38;;;9.80;99.90;;;;;;6319522;28;20028;-80
2021/05/17 03:40:34;;;;;;;4.47;2.00;;;10.30;99.90;;;;;;6301188;28;20671;-81
2021/05/17 03:43:35;;;;;;;4.30;2.28;;;9.90;99.90;;;;;;6309503;28;20063;-80
2021/05/17 03:46:35;;;;;;;7.28;2.42;;;9.80;99.90;;;;;;6317761;28;20422;-80
2021/05/17 03:49:36;;;;;;;5.53;2.22;;;10.00;99.90;;;;;;6319346;28;20032;-80
2021/05/17 03:52:36;;;;;;;9.68;2.60;;;9.80;99.90;;;;;;6318686;28;20115;-80
2021/05/17 03:55:37;;;;;;;12.57;2.17;;;10.10;99.90;;;;;;6317635;28;20747;-80
2021/05/17 03:58:38;;;;;;;6.15;2.40;;;9.90;99.90;;;;;;6317910;28;20081;-80
2021/05/17 04:01:38;;;;;;;5.35;2.33;;;10.10;99.90;;;;;;6317776;28;20043;-80
2021/05/17 04:04:43;;;;;;;5.25;2.20;;;9.50;99.90;;;;;;6329506;28;20030;-80
2021/05/17 04:14:04;;;;;;;4.03;1.75;;;9.50;99.90;;;;;;6343756;28;20023;-81
2021/05/17 04:17:04;;;;;;;6.90;1.98;;;9.50;99.90;;;;;;6334413;28;20176;-80
2021/05/17 04:20:06;;;;;;;4.45;1.73;;;9.40;99.90;;;;;;6321631;28;20031;-80
2021/05/17 04:23:07;;;;;;;6.65;2.08;;;;;;;;;;6326081;28;20053;-80
2021/05/17 04:26:07;;;;;;;5.75;1.83;;;9.50;99.90;;;;;;6342629;28;20028;-80
2021/05/17 04:29:08;;;;;;;4.10;1.98;;;9.80;99.90;;;;;;6335069;28;20050;-81
2021/05/17 04:32:08;;;;;;;6.68;1.95;;;10.20;99.90;;;;;;6318671;28;20121;-81
2021/05/17 04:35:10;;;;;;;5.07;1.92;;;9.60;99.90;;;;;;6317601;28;20039;-80
2021/05/17 04:38:13;;;;;;;4.28;1.88;;;9.60;99.90;;;;;;6305146;28;20031;-80
2021/05/17 04:41:13;;;;;;;6.55;1.83;;;9.60;99.90;;;;;;6305811;28;20048;-80
2021/05/17 04:44:15;;;;;;;4.65;2.13;;;9.70;99.90;;;;;;6316870;28;20032;-80
2021/05/17 04:47:16;;;;;;;6.95;2.10;;;9.70;99.90;;;;;;6316519;28;21005;-80
2021/05/17 04:50:16;;;;;;;5.88;2.42;;;9.70;99.90;;;;;;6317058;28;20057;-81
2021/05/17 04:53:17;;;;;;;3.63;1.88;;;9.80;99.90;;;;;;6331694;28;20058;-80
2021/05/17 04:56:18;;;;;;;4.22;1.90;;;9.70;99.90;;;;;;6331785;28;20046;-82
2021/05/17 04:59:18;;;;;;;7.10;2.03;;;9.40;99.90;;;;;;6282751;28;20051;-83
2021/05/17 05:02:19;;;;;;;5.30;2.20;;;;;;;;;;6292228;28;20396;-82
2021/05/17 05:05:20;;;;;;;4.85;2.17;;;9.60;99.90;;;;;;6327338;28;20035;-80
2021/05/17 05:08:21;;;;;;;4.43;2.10;;;;;;;;;;6279203;28;20702;-81
2021/05/17 05:11:23;;;;;;;7.80;1.90;;;9.60;99.90;;;;;;6322168;28;20486;-83
2021/05/17 05:14:23;;;;;;;5.23;1.90;;;9.80;99.90;;;;;;6304733;28;20039;-82
2021/05/17 05:17:24;;;;;;;2.85;1.77;;;;;;;;;;6281392;28;20036;-84
2021/05/17 05:20:27;;;;;;;4.60;1.85;;;;;;;;;;6320549;28;20055;-84
2021/05/17 05:23:28;;;;;;;2.75;1.70;;;;;;;;;;6332697;28;20047;-83
2021/05/17 05:26:48;;;;;;;6.28;2.22;;;;;;;;;;6329128;28;20034;-86
2021/05/17 05:33:15;;;;;;;8.88;3.05;;;9.60;99.90;;;;;;6322964;28;20036;-82
2021/05/17 05:36:16;;;;;;;6.18;2.17;;;;;;;;;;6308184;28;20021;-82
2021/05/17 05:39:20;;;;;;;5.20;2.33;;;;;;;;;;6308712;28;20032;-81
2021/05/17 05:42:26;;;;;;;9.30;2.70;;;9.80;99.90;;;;;;6303783;28;20027;-84
2021/05/17 05:45:28;;;;;;;7.15;1.95;;;;;;;;;;6287177;28;20057;-83
2021/05/17 05:48:29;;;;;;;8.88;2.63;;;;;;;;;;6317365;28;20064;-84
2021/05/17 05:51:30;;;;;;;4.57;2.35;;;9.80;99.90;;;;;;6307630;28;20020;-81
2021/05/17 05:54:30;;;;;;;6.53;2.50;;;9.80;99.90;;;;;;6309531;28;20049;-80
2021/05/17 05:57:37;;;;;;;5.80;2.38;;;;;;;;;;6329081;28;20486;-82
2021/05/17 06:00:38;;;;;;;7.63;2.50;;;9.40;99.90;;;;;;6329690;28;20381;-84
2021/05/17 06:03:39;;;;;;;7.07;2.38;;;9.90;99.90;;;;;;6306195;28;20118;-82
2021/05/17 06:06:40;;;;;;;9.65;2.42;;;10.00;99.90;;;;;;6345473;28;20129;-82
2021/05/17 06:09:40;;;;;;;4.55;2.03;;;10.00;99.90;;;;;;6328788;28;20096;-82
2021/05/17 06:12:41;;;;;;;7.40;2.95;;;10.10;99.90;;;;;;6311615;28;20024;-82
2021/05/17 06:15:44;;;;;;;5.00;1.80;;;10.20;99.90;;;;;;6318089;28;20032;-83
2021/05/17 06:18:45;;;;;;;11.45;2.83;;;10.00;99.90;;;;;;6297341;28;20394;-82
2021/05/17 06:21:46;;;;;;;6.22;2.03;;;10.10;99.90;;;;;;6304243;28;20031;-82
2021/05/17 06:24:47;;;;;;;7.88;2.60;;;9.90;99.90;;;;;;6311345;28;20088;-80
2021/05/17 06:27:48;;;;;;;7.88;2.33;;;10.00;99.90;;;;;;6311384;28;20043;-82
2021/05/17 06:30:54;;;;;;;5.80;2.20;;;;;;;;;;6315444;28;20352;-82
2021/05/17 06:33:55;;;;;;;4.68;2.20;;;10.10;99.90;;;;;;6319483;28;20028;-80
2021/05/17 06:36:55;;;;;;;6.18;1.95;;;10.20;99.90;;;;;;6302825;28;20039;-81
2021/05/17 06:39:56;;;;;;;6.90;2.40;;;10.30;99.90;;;;;;6319362;28;20032;-81
2021/05/17 06:42:57;;;;;;;5.38;2.25;;;10.20;99.90;;;;;;6293997;28;20020;-80
2021/05/17 06:45:57;;;;;;;5.40;2.20;;;10.20;99.90;;;;;;6308932;28;20032;-81
2021/05/17 06:48:58;;;;;;;6.13;2.28;;;10.20;99.90;;;;;;6285390;28;20064;-82
2021/05/17 06:51:59;;;;;;;5.40;1.88;;;10.20;99.90;;;;;;6302134;28;20024;-81
2021/05/17 06:55:02;;;;;;;3.45;2.08;;;10.30;99.90;;;;;;6285800;28;20035;-83
2021/05/17 06:58:13;;;;;;;;;;;10.70;99.90;;;;;;6318547;28;20031;-80
2021/05/17 07:01:15;;;;;;;4.93;2.03;;;10.40;99.70;;;;;;6303844;28;19912;-80
2021/05/17 07:04:16;;;;;;;5.87;1.93;;;;;;;;;;6285651;28;20028;-81
2021/05/17 07:07:24;;;;;;;4.43;2.22;;;10.50;98.60;;;;;;6318919;28;20044;-80
2021/05/17 07:13:44;;;;;;;6.18;2.95;;;10.50;98.90;;;;;;6304620;28;20036;-80
2021/05/17 07:16:45;;;;;;;6.82;2.65;;;10.50;99.90;;;;;;6285451;28;20476;-82
2021/05/17 07:19:46;;;;;;;4.10;1.90;;;10.50;99.90;;;;;;6301516;28;20016;-81
2021/05/17 07:26:14;;;;;;;6.30;2.17;;;10.70;99.90;;;;;;6318575;28;20028;-81
2021/05/17 07:29:16;;;;;;;7.28;1.98;;;10.80;99.30;;;;;;6301869;28;20077;-81
2021/05/17 07:32:16;;;;;;;3.60;1.77;;;10.90;99.90;;;;;;6301673;28;20028;-81
2021/05/17 07:35:17;;;;;;;5.50;2.03;;;11.00;99.90;;;;;;6284894;28;20028;-80
2021/05/17 07:38:21;;;;;;;3.08;1.85;;;10.90;99.60;;;;;;6301457;28;20036;-80
2021/05/17 07:41:22;;;;;;;4.93;2.30;;;11.40;99.90;;;;;;6301969;28;20025;-82
2021/05/17 07:44:23;;;;;;;4.45;2.20;;;10.90;99.90;;;;;;6300875;28;20050;-81
2021/05/17 07:47:23;;;;;;;5.60;2.00;;;11.20;99.90;;;;;;6301080;28;20059;-81
2021/05/17 07:50:24;;;;;;;5.90;2.40;;;11.20;99.90;;;;;;6284530;28;20036;-81
2021/05/17 07:53:25;;;;;;;4.47;1.85;;;;;;;;;;6301268;28;20454;-80
2021/05/17 07:56:26;;;;;;;5.72;2.22;;;;;;;;;;6317910;28;20035;-81
2021/05/17 07:59:30;;;;;;;4.95;1.90;;;;;;;;;;6317837;28;20465;-82
2021/05/17 08:02:30;;;;;;;5.50;2.20;;;11.70;99.90;;;;;;6299775;28;20382;-81
2021/05/17 08:05:31;;;;;;;5.93;2.03;;;11.80;99.90;;;;;;6271973;28;20060;-82
2021/05/17 08:08:32;;;;;;;5.72;2.00;;;11.40;99.90;;;;;;6283826;28;20032;-81
2021/05/17 08:11:32;;;;;;;4.70;1.80;;;;;;;;;;6279024;28;20024;-80
2021/05/17 08:14:34;;;;;;;3.88;1.58;;;;;;;;;;6288264;28;20024;-81
2021/05/17 08:17:35;;;;;;;6.50;1.95;;;11.50;99.90;;;;;;6300449;28;20209;-81
2021/05/17 08:20:36;;;;;;;4.93;2.03;;;;;;;;;;6301001;28;20024;-81
2021/05/17 08:23:36;;;;;;;5.18;2.40;;;11.50;98.30;;;;;;6317324;28;20052;-81
2021/05/17 08:26:37;;;;;;;4.28;2.00;;;11.60;99.90;;;;;;6300677;28;20031;-81
2021/05/17 08:29:38;;;;;;;5.40;2.33;;;;;;;;;;6286526;28;20424;-80
2021/05/17 08:32:39;;;;;;;5.05;2.78;;;11.70;99.90;;;;;;6320654;28;20028;-82
2021/05/17 08:35:40;;;;;;;3.72;2.00;;;;;;;;;;6283497;28;20492;-81
2021/05/17 08:38:41;;;;;;;7.15;2.00;;;12.20;99.90;;;;;;6316563;28;20465;-82
2021/05/17 08:41:41;;;;;;;5.97;2.15;;;12.80;99.90;;;;;;6300109;28;20039;-84
2021/05/17 08:44:43;;;;;;;9.45;3.00;;;12.70;99.90;;;;;;6300309;28;20095;-82
2021/05/17 08:47:44;;;;;;;5.65;2.10;;;;;;;;;;6282873;28;20056;-82
2021/05/17 08:50:45;;;;;;;5.80;2.73;;;;;;;;;;6301063;28;20059;-83
2021/05/17 08:53:49;;;;;;;8.13;2.78;;;;;;;;;;6316508;28;20266;-82
2021/05/17 08:56:49;;;;;;;4.28;1.92;;;;;;;;;;6325790;28;20066;-81
2021/05/17 08:59:50;;;;;;;5.15;1.77;;;12.60;99.90;;;;;;6341674;28;20032;-83
2021/05/17 09:02:53;;;;;;;4.78;1.90;;;;;;;;;;6311429;28;20031;-83
2021/05/17 09:06:12;;;;;;;6.03;2.20;;;12.90;99.90;;;;;;6336711;28;20354;-82
2021/05/17 09:09:51;;;;;;;2.55;1.92;;;12.90;99.90;;;;;;6287214;28;20044;-83
2021/05/17 09:12:54;;;;;;;6.68;2.30;;;13.10;99.90;;;;;;6198341;28;20046;-82
2021/05/17 09:15:55;;;;;;;5.43;2.40;;;12.90;99.90;;;;;;6191054;28;20551;-83
2021/05/17 09:18:55;;;;;;;5.25;2.15;;;13.10;99.90;;;;;;6193980;28;20042;-83
2021/05/17 09:22:08;;;;;;;4.35;1.90;;;13.00;99.90;;;;;;6199107;28;20034;-83
2021/05/17 09:25:10;;;;;;;4.43;1.45;;;;;;;;;;6194625;28;20081;-83
2021/05/17 09:28:11;;;;;;;6.28;2.55;;;13.00;99.90;;;;;;6193165;28;20035;-83
2021/05/17 09:31:14;;;;;;;5.50;2.67;;;13.10;99.80;;;;;;6198902;28;20492;-83
2021/05/17 09:34:14;;;;;;;3.20;1.73;;;13.40;96.30;;;;;;6199113;28;20042;-83
2021/05/17 09:37:15;;;;;;;4.45;1.85;;;14.00;96.00;;;;;;6224316;28;20145;-83
2021/05/17 09:40:17;;;;;;;4.30;2.30;;;14.30;93.70;;;;;;6199551;28;20515;-83
2021/05/17 09:43:17;;;;;;;4.75;1.58;;;14.30;94.00;;;;;;6217156;28;20589;-83
2021/05/17 09:46:18;;;;;;;3.03;1.60;;;14.10;93.50;;;;;;6211569;28;20026;-82
2021/05/17 09:49:19;;;;;;;3.10;1.55;;;13.30;99.90;;;;;;6276296;28;20055;-83
2021/05/17 09:52:30;;;;;;;2.92;1.70;;;13.10;99.90;;;;;;6302527;28;20485;-83
2021/05/17 09:55:31;;;;;;;1.85;1.40;;;13.20;99.90;;;;;;6297263;28;20073;-83
2021/05/17 09:58:33;;;;;;;2.40;1.55;;;13.30;96.40;;;;;;6288996;28;20055;-83
2021/05/17 10:01:34;;;;;;;3.92;2.10;;;;;;;;;;6320914;28;20107;-83
2021/05/17 10:04:35;;;;;;;2.75;1.67;;;13.90;99.90;;;;;;6303164;28;20032;-83
2021/05/17 10:07:35;;;;;;;2.33;1.38;;;14.20;99.90;;;;;;6286581;28;20031;-83
2021/05/17 10:10:36;;;;;;;2.55;1.50;;;14.10;95.20;;;;;;6299640;28;20036;-83
2021/05/17 10:13:37;;;;;;;2.35;1.60;;;13.90;95.40;;;;;;6303186;28;20035;-83
2021/05/17 10:16:40;;;;;;;4.68;2.33;;;14.00;99.90;;;;;;6298433;28;20039;-83
2021/05/17 10:19:41;;;;;;;2.55;1.55;;;;;;;;;;6303162;28;20039;-82
2021/05/17 10:22:42;;;;;;;1.75;1.50;;;12.50;99.90;;;;;;6318392;28;20370;-82
2021/05/17 10:25:43;;;;;;;3.92;2.10;;;12.50;99.90;;;;;;6302971;28;20028;-82
2021/05/17 10:28:56;;;;;;;4.32;1.88;;;12.50;99.90;;;;;;6289872;28;20462;-82
2021/05/17 10:31:58;;;;;;;4.18;2.10;;;12.70;99.20;;;;;;6304052;28;20115;-83
2021/05/17 10:35:10;;;;;;;2.13;1.60;;;14.00;99.90;;;;;;6272507;28;20090;-83
2021/05/17 10:38:29;;;;;;;3.28;2.20;;;14.80;99.90;;;;;;6318649;28;20035;-83
2021/05/17 10:41:50;;;;;;;4.15;2.13;;;14.60;99.90;;;;;;6314752;28;20028;-83
2021/05/17 10:48:31;;;;;;;3.80;2.00;;;14.30;99.90;;;;;;6318937;28;20406;-83
2021/05/17 10:51:31;;;;;;;3.83;1.92;;;14.20;99.90;;;;;;6310626;28;20032;-83
2021/05/17 10:54:38;;;;;;;3.17;1.70;;;13.70;99.90;;;;;;6327033;28;20514;-82
2021/05/17 10:57:56;;;;;;;2.58;1.30;;;13.70;99.90;;;;;;6302751;28;20016;-84
2021/05/17 11:01:25;;;;;;;3.15;1.67;;;14.20;99.90;;;;;;6320407;28;20482;-83
2021/05/17 11:04:30;;;;;;;3.30;1.50;;;14.20;99.90;;;;;;6301470;28;20028;-83
2021/05/17 11:07:32;;;;;;;4.70;2.00;;;14.00;99.90;;;;;;6318759;28;20028;-83
2021/05/17 11:10:37;;;;;;;4.10;1.90;;;14.10;96.90;;;;;;6319017;28;20637;-83
2021/05/17 11:13:38;;;;;;;3.20;2.08;;;15.00;99.90;;;;;;6285202;28;20036;-83
2021/05/17 11:16:57;;;;;;;2.58;1.80;;;15.00;99.90;;;;;;6318551;28;20123;-83
2021/05/17 11:19:58;;;;;;;3.65;2.15;;;15.10;99.90;;;;;;6301287;28;20020;-83
2021/05/17 11:22:58;;;;;;;5.20;2.08;;;14.90;99.90;;;;;;6318175;28;20031;-83
2021/05/17 11:26:10;;;;;;;3.67;1.77;;;15.30;99.90;;;;;;6318154;28;20386;-83
2021/05/17 11:29:11;;;;;;;2.45;1.48;;;15.30;99.90;;;;;;6318476;28;20066;-83
2021/05/17 11:32:13;;;;;;;1.23;1.17;;;15.70;99.90;;;;;;6315430;28;20035;-83
2021/05/17 11:35:13;;;;;;;3.45;1.85;;;15.70;99.90;;;;;;6313933;28;20064;-83
2021/05/17 11:38:15;;;;;;;3.10;1.63;;;15.80;99.90;;;;;;6300899;28;20475;-83
2021/05/17 11:41:20;;;;;;;1.48;1.33;;;15.90;99.90;;;;;;6324863;28;20067;-82
2021/05/17 11:47:44;;;;;;;1.67;1.40;;;15.30;99.90;;;;;;6307556;28;20066;-82
2021/05/17 11:50:45;;;;;;;2.22;1.50;;;;;;;;;;6342860;28;20413;-83
2021/05/17 11:53:46;;;;;;;2.40;1.52;;;;;;;;;;6341813;28;20020;-83
2021/05/17 11:56:52;;;;;;;4.05;1.73;;;16.40;99.90;;;;;;6336314;28;20024;-83
2021/05/17 11:59:52;;;;;;;2.50;1.48;;;16.60;96.00;;;;;;6326207;28;20027;-81
2021/05/17 12:02:54;;;;;;;1.23;1.15;;;16.30;99.90;;;;;;6324113;28;20106;-82
2021/05/17 12:05:55;;;;;;;1.25;1.05;;;;;;;;;;6311371;28;20031;-83
2021/05/17 12:08:56;;;;;;;1.30;1.10;;;16.40;99.90;;;;;;6339567;28;20035;-82
2021/05/17 12:11:58;;;;;;;2.83;1.23;;;16.70;99.20;;;;;;6338338;28;20032;-82
2021/05/17 12:15:00;;;;;;;0.77;0.77;;;16.10;99.50;;;;;;6284687;28;20043;-81
2021/05/17 12:18:07;;;;;;;3.20;1.25;;;16.00;99.60;;;;;;6309089;28;20075;-82
2021/05/17 12:21:11;;;;;;;2.13;1.38;;;15.70;90.10;;;;;;6283729;28;20030;-82
2021/05/17 12:24:23;;;;;;;1.15;1.10;;;15.70;91.90;;;;;;6289153;28;20043;-82
2021/05/17 12:27:24;;;;;;;2.43;1.37;;;16.00;92.40;;;;;;6291056;28;20466;-83
2021/05/17 12:30:25;;;;;;;2.55;1.42;;;16.20;92.90;;;;;;6288090;28;20036;-82
2021/05/17 12:33:26;;;;;;;2.05;1.58;;;16.80;91.70;;;;;;6305777;28;20040;-83
2021/05/17 12:36:32;;;;;;;2.92;1.63;;;16.80;91.80;;;;;;6283134;28;20122;-82
2021/05/17 12:39:33;;;;;;;1.92;1.25;;;16.70;98.30;;;;;;6296330;28;20024;-83
2021/05/17 12:42:34;;;;;;;3.00;1.52;;;;;;;;;;6282938;28;20024;-82
2021/05/17 12:45:36;;;;;;;3.90;1.48;;;16.20;87.30;;;;;;6299996;28;20035;-82
2021/05/17 12:48:46;;;;;;;15.73;2.00;;;15.80;91.10;;;;;;6303978;28;20052;-82
2021/05/17 12:51:52;;;;;;;1.98;1.40;;;15.80;93.00;;;;;;6301157;28;20028;-81
2021/05/17 12:55:17;;;;;;;4.00;1.80;;;15.30;91.70;;;;;;6323743;28;20119;-82
2021/05/17 12:58:40;;;;;;;1.35;1.20;;;15.40;99.90;;;;;;6318438;28;20064;-82
2021/05/17 13:01:41;;;;;;;1.35;1.15;;;15.20;91.40;;;;;;6289889;28;20031;-83
2021/05/17 13:04:41;;;;;;;1.42;1.23;;;15.20;93.10;;;;;;6312924;28;20060;-82
2021/05/17 13:08:02;;;;;;;2.65;1.10;;;15.20;93.60;;;;;;6323885;28;20529;-82
2021/05/17 13:11:09;;;;;;;2.60;1.38;;;15.40;93.20;;;;;;6341024;28;20157;-82
2021/05/17 13:14:12;;;;;;;1.67;1.58;;;15.10;92.10;;;;;;6288719;28;20032;-81
2021/05/17 13:17:13;;;;;;;;;;;14.40;95.00;;;;;;6331350;28;20027;-81
2021/05/17 13:20:21;;;;;;;1.63;1.17;;;14.10;95.40;;;;;;6336749;28;19961;-81
2021/05/17 13:30:16;;;;;;;4.60;2.30;;;12.70;99.90;;;;;;6322196;28;20040;-81
2021/05/17 13:33:45;;;;;;;3.92;1.67;;;12.60;97.80;;;;;;6322762;28;20030;-81
2021/05/17 13:36:47;;;;;;;2.22;2.00;;;;;;;;;;6331892;28;20382;-81
2021/05/17 13:39:49;;;;;;;10.77;7.63;;;12.40;99.90;;;;;;6321146;28;20031;-81
2021/05/17 13:42:49;;;;;;;3.72;1.88;;;12.70;99.90;;;;;;6308432;28;21120;-81
2021/05/17 13:45:50;;;;;;;3.33;1.73;;;12.80;99.90;;;;;;6285514;28;20026;-81
2021/05/17 13:48:53;;;;;;;3.65;2.25;;;12.70;99.90;;;;;;6320236;28;20052;-81
2021/05/17 13:51:54;;;;;;;3.15;1.77;;;12.20;99.90;;;;;;6304242;28;20036;-81
2021/05/17 13:54:55;;;;;;;2.63;1.42;;;;;;;;;;6303102;28;20047;-81
2021/05/17 13:57:56;;;;;;;1.70;1.35;;;12.60;99.90;;;;;;6334732;28;20023;-81
2021/05/17 14:00:57;;;;;;;3.10;2.05;;;;;;;;;;6329087;28;20468;-82
2021/05/17 14:03:58;;;;;;;4.43;2.90;;;13.60;99.90;;;;;;6346931;28;20024;-82
2021/05/17 14:06:59;;;;;;;5.15;2.40;;;;;;;;;;6311808;28;20453;-82
2021/05/17 14:09:59;;;;;;;2.85;2.00;;;14.10;97.80;;;;;;6345361;28;20759;-82
2021/05/17 14:13:00;;;;;;;3.17;1.85;;;14.30;98.20;;;;;;6328156;28;20073;-82
2021/05/17 14:16:01;;;;;;;6.55;4.38;;;14.70;98.90;;;;;;6335010;28;20039;-84
2021/05/17 14:19:02;;;;;;;11.30;7.72;;;15.10;97.00;;;;;;6327858;28;20470;-85
2021/05/17 14:22:04;;;;;;;5.55;4.90;;;15.50;99.90;;;;;;6309697;28;20472;-83
2021/05/17 14:25:05;;;;;;;3.50;2.38;;;15.60;99.90;;;;;;6319793;28;20024;-83
2021/05/17 14:28:06;;;;;;;4.10;2.85;;;15.30;99.90;;;;;;6319412;28;20036;-83
2021/05/17 14:31:07;;;;;;;2.55;2.35;;;15.50;99.90;;;;;;6302738;28;20473;-83
2021/05/17 14:34:08;;;;;;;4.20;2.78;;;15.60;99.90;;;;;;6324074;28;20023;-83
2021/05/17 14:37:08;;;;;;;5.10;2.42;;;15.60;97.00;;;;;;6316525;28;20428;-82
2021/05/17 14:40:13;;;;;;;4.50;2.63;;;15.30;99.90;;;;;;6328264;28;20035;-83
2021/05/17 14:43:13;;;;;;;3.58;2.30;;;15.10;99.80;;;;;;6292830;28;20408;-83
2021/05/17 14:46:15;;;;;;;5.18;2.28;;;14.90;93.20;;;;;;6289973;28;20028;-83
2021/05/17 14:49:15;;;;;;;2.30;1.90;;;14.20;99.90;;;;;;6273267;28;20040;-83
2021/05/17 14:52:16;;;;;;;2.72;1.63;;;14.30;93.80;;;;;;6302490;28;20047;-84
2021/05/17 14:55:17;;;;;;;2.85;2.08;;;14.10;99.90;;;;;;6318239;28;20032;-83
2021/05/17 14:58:18;;;;;;;3.10;1.65;;;;;;;;;;6324823;28;20065;-83
2021/05/17 15:01:19;;;;;;;5.03;1.83;;;;;;;;;;6336357;28;20042;-83
2021/05/17 15:04:20;;;;;;;1.40;1.30;;;15.50;99.90;;;;;;6314607;28;20537;-83
2021/05/17 15:07:21;;;;;;;2.97;1.40;;;15.90;99.90;;;;;;6313722;28;20028;-83
2021/05/17 15:10:24;;;;;;;3.80;1.98;;;15.70;99.90;;;;;;6315123;28;20508;-81
2021/05/17 15:13:24;;;;;;;4.45;1.98;;;15.50;99.80;;;;;;6301992;28;20028;-82
2021/05/17 15:16:26;;;;;;;7.03;2.10;;;;;;;;;;6285424;28;20028;-80
2021/05/17 15:19:26;;;;;;;3.83;1.98;;;15.40;99.90;;;;;;6319657;28;20035;-82
2021/05/17 15:22:27;;;;;;;3.42;1.83;;;;;;;;;;6301268;28;20107;-81
2021/05/17 15:25:28;;;;;;;4.82;1.60;;;15.30;90.50;;;;;;6337748;28;20039;-82
2021/05/17 15:28:29;;;;;;;4.10;1.83;;;15.10;91.50;;;;;;6335585;28;20048;-81
2021/05/17 15:31:31;;;;;;;2.67;1.77;;;;;;;;;;6301746;28;20110;-82
2021/05/17 15:34:32;;;;;;;3.03;1.45;;;14.20;99.90;;;;;;6301777;28;20069;-82
2021/05/17 15:37:35;;;;;;;1.98;1.77;;;13.70;99.90;;;;;;6318666;28;20419;-82
2021/05/17 15:40:37;;;;;;;3.97;1.92;;;13.30;99.90;;;;;;6318297;28;20385;-82
2021/05/17 15:43:38;;;;;;;3.55;1.85;;;;;;;;;;6301213;28;20373;-80
2021/05/17 15:46:39;;;;;;;3.10;1.80;;;;;;;;;;6310792;28;20044;-83
2021/05/17 15:49:40;;;;;;;2.97;2.03;;;12.50;99.90;;;;;;6342173;28;20039;-80
2021/05/17 15:52:40;;;;;;;4.28;1.60;;;12.60;99.90;;;;;;6334455;28;20020;-79
2021/05/17 15:55:41;;;;;;;4.15;2.38;;;;;;;;;;6319850;28;21096;-79
2021/05/17 15:58:42;;;;;;;3.53;2.15;;;12.40;99.40;;;;;;6319134;28;20131;-80
2021/05/17 16:01:43;;;;;;;2.50;1.83;;;12.60;99.90;;;;;;6328934;28;20483;-82
2021/05/17 16:04:43;;;;;;;2.85;1.50;;;12.90;99.90;;;;;;6285665;28;21500;-81
2021/05/17 16:07:44;;;;;;;2.45;1.50;;;13.40;99.90;;;;;;6281875;28;20070;-80
2021/05/17 16:10:47;;;;;;;3.00;1.73;;;13.40;99.60;;;;;;6307604;28;20032;-83
2021/05/17 16:14:01;;;;;;;2.63;1.77;;;13.50;98.50;;;;;;6317704;28;20359;-81
2021/05/17 16:23:28;;;;;;;1.92;1.70;;;12.90;99.90;;;;;;6327598;28;20426;-84
2021/05/17 16:26:30;;;;;;;12.45;2.05;;;13.00;99.90;;;;;;6289310;28;20061;-84
2021/05/17 16:29:30;;;;;;;3.10;1.25;;;12.90;99.90;;;;;;6287694;28;20042;-83
2021/05/17 16:32:31;;;;;;;13.05;5.07;;;13.20;97.30;;;;;;6300745;28;20390;-82
2021/05/17 16:35:32;;;;;;;4.30;2.35;;;13.10;99.90;;;;;;6316626;28;20035;-82
2021/05/17 16:38:32;;;;;;;2.17;1.15;;;13.10;96.60;;;;;;6306624;28;20032;-82
2021/05/17 16:41:33;;;;;;;0.70;0.70;;;12.90;99.90;;;;;;6301159;28;20028;-82
2021/05/17 16:44:34;;;;;;;1.33;1.20;;;13.10;96.40;;;;;;6299796;28;20025;-81
2021/05/17 16:47:35;;;;;;;2.05;1.13;;;;;;;;;;6304903;28;20058;-82
2021/05/17 16:50:36;;;;;;;2.38;1.50;;;;;;;;;;6324794;28;20497;-81
2021/05/17 16:53:36;;;;;;;2.13;1.48;;;13.10;94.30;;;;;;6342365;28;20428;-82